createdAt,value
2019-03-20T00:00:59.734Z,9.20
2019-03-20T00:03:25.765Z,8.90
2019-03-20T00:05:51.619Z,10.43
2019-03-20T00:08:17.468Z,8.27
2019-03-20T00:10:43.352Z,7.67
2019-03-20T00:13:09.190Z,9.77
2019-03-20T00:15:35.192Z,8.83
2019-03-20T00:18:01.034Z,8.53
2019-03-20T00:20:26.882Z,12.33
2019-03-20T00:22:52.874Z,9.97
2019-03-20T00:25:18.715Z,9.33
2019-03-20T00:27:44.661Z,11.90
2019-03-20T00:30:14.297Z,11.07
2019-03-20T00:32:40.575Z,9.53
2019-03-20T00:35:06.651Z,9.17
2019-03-20T00:37:32.639Z,10.13
2019-03-20T00:39:58.597Z,10.47
2019-03-20T00:42:24.500Z,9.03
2019-03-20T00:44:50.339Z,9.10
2019-03-20T00:47:16.279Z,9.77
2019-03-20T00:49:42.520Z,10.77
2019-03-20T00:52:08.351Z,10.07
2019-03-20T00:54:34.347Z,12.00
2019-03-20T00:57:00.467Z,10.77
2019-03-20T00:59:26.420Z,9.87
2019-03-20T01:01:52.274Z,10.77
2019-03-20T01:04:18.172Z,11.63
2019-03-20T01:06:44.003Z,9.60
2019-03-20T01:09:09.937Z,10.97
2019-03-20T01:11:35.808Z,9.17
2019-03-20T01:14:01.755Z,8.23
2019-03-20T01:16:27.740Z,9.93
2019-03-20T01:18:53.574Z,9.33
2019-03-20T01:21:19.409Z,10.40
2019-03-20T01:23:45.288Z,9.97
2019-03-20T01:26:11.241Z,12.53
2019-03-20T01:28:37.202Z,11.30
2019-03-20T01:31:03.278Z,10.77
2019-03-20T01:33:29.112Z,11.83
2019-03-20T01:35:55.002Z,10.90
2019-03-20T01:38:20.972Z,13.67
2019-03-20T01:40:46.805Z,11.90
2019-03-20T01:43:12.807Z,12.53
2019-03-20T01:45:38.961Z,11.63
2019-03-20T01:48:05.078Z,14.53
2019-03-20T01:50:31.081Z,10.50
2019-03-20T01:52:56.934Z,10.73
2019-03-20T01:55:26.809Z,12.23
2019-03-20T01:57:52.958Z,12.77
2019-03-20T02:00:18.905Z,10.33
2019-03-20T02:02:44.833Z,10.57
2019-03-20T02:05:11.129Z,11.20
2019-03-20T02:07:36.988Z,16.03
2019-03-20T02:10:09.104Z,14.67
2019-03-20T02:12:35.051Z,11.40
2019-03-20T02:15:00.884Z,12.37
2019-03-20T02:17:26.783Z,11.93
2019-03-20T02:19:52.728Z,16.43
2019-03-20T02:22:18.609Z,12.80
2019-03-20T02:24:44.607Z,18.20
2019-03-20T02:27:10.429Z,11.33
2019-03-20T02:29:36.276Z,13.53
2019-03-20T02:32:02.255Z,12.97
2019-03-20T02:34:28.218Z,8.93
2019-03-20T02:36:54.273Z,10.87
2019-03-20T02:39:20.349Z,13.43
2019-03-20T02:41:46.410Z,11.23
2019-03-20T02:44:12.432Z,15.57
2019-03-20T02:46:38.376Z,13.80
2019-03-20T02:49:04.373Z,11.83
2019-03-20T02:51:30.432Z,13.93
2019-03-20T02:53:56.372Z,18.20
2019-03-20T02:56:22.210Z,13.47
2019-03-20T02:58:48.235Z,13.03
2019-03-20T03:01:14.197Z,13.33
2019-03-20T03:03:40.316Z,11.87
2019-03-20T03:06:07.567Z,13.53
2019-03-20T03:08:33.681Z,16.37
2019-03-20T03:10:59.646Z,13.83
2019-03-20T03:13:25.501Z,16.50
2019-03-20T03:15:51.503Z,13.57
2019-03-20T03:18:17.354Z,13.33
2019-03-20T03:20:43.190Z,12.53
2019-03-20T03:23:09.192Z,15.37
2019-03-20T03:25:35.332Z,12.40
2019-03-20T03:28:01.253Z,11.23
2019-03-20T03:30:27.078Z,12.87
2019-03-20T03:32:53.041Z,14.10
2019-03-20T03:35:20.220Z,10.97
2019-03-20T03:37:46.561Z,12.97
2019-03-20T03:40:16.455Z,13.53
2019-03-20T03:42:42.831Z,11.30
2019-03-20T03:45:15.736Z,12.33
2019-03-20T03:47:41.780Z,13.13
2019-03-20T03:50:09.079Z,15.23
2019-03-20T03:52:35.151Z,11.03
2019-03-20T03:55:01.107Z,11.40
2019-03-20T03:57:27.425Z,13.70
2019-03-20T03:59:56.557Z,14.00
2019-03-20T04:02:22.644Z,14.60
2019-03-20T04:04:48.804Z,13.63
2019-03-20T04:07:14.704Z,12.53
2019-03-20T04:09:40.650Z,11.60
2019-03-20T04:12:06.560Z,12.03
2019-03-20T04:14:32.550Z,12.60
2019-03-20T04:16:58.388Z,11.93
2019-03-20T04:19:24.431Z,13.07
2019-03-20T04:21:50.293Z,12.97
2019-03-20T04:24:16.216Z,14.70
2019-03-20T04:26:42.310Z,12.07
2019-03-20T04:29:08.175Z,13.27
2019-03-20T04:31:34.030Z,12.77
2019-03-20T04:33:59.895Z,14.73
2019-03-20T04:36:25.930Z,16.63
2019-03-20T04:38:51.928Z,13.07
2019-03-20T04:41:17.901Z,17.13
2019-03-20T04:43:43.837Z,14.63
2019-03-20T04:46:09.883Z,13.30
2019-03-20T04:48:35.822Z,13.53
2019-03-20T04:51:01.694Z,14.77
2019-03-20T04:53:27.580Z,15.67
2019-03-20T04:55:53.574Z,17.17
2019-03-20T04:58:19.526Z,15.50
2019-03-20T05:00:49.027Z,14.53
2019-03-20T05:03:14.860Z,14.73
2019-03-20T05:05:40.882Z,15.30
2019-03-20T05:08:06.732Z,15.97
2019-03-20T05:10:32.579Z,13.50
2019-03-20T05:12:58.573Z,13.93
2019-03-20T05:15:24.430Z,16.03
2019-03-20T05:17:50.442Z,13.73
2019-03-20T05:20:20.388Z,15.77
2019-03-20T05:22:46.463Z,14.40
2019-03-20T05:25:12.542Z,14.33
2019-03-20T05:27:38.613Z,13.80
2019-03-20T05:30:07.767Z,15.13
2019-03-20T05:32:33.610Z,14.70
2019-03-20T05:34:59.606Z,16.27
2019-03-20T05:37:25.622Z,15.43
2019-03-20T05:39:51.509Z,19.33
2019-03-20T05:42:17.406Z,15.87
2019-03-20T05:44:43.454Z,14.97
2019-03-20T05:47:09.311Z,14.07
2019-03-20T05:49:35.126Z,14.30
2019-03-20T05:52:01.130Z,15.10
2019-03-20T05:54:27.116Z,17.37
2019-03-20T05:56:52.917Z,15.07
2019-03-20T05:59:19.051Z,16.40
2019-03-20T06:01:45.319Z,14.87
2019-03-20T06:04:11.185Z,17.57
2019-03-20T06:06:37.039Z,17.93
2019-03-20T06:09:05.622Z,15.60
2019-03-20T06:11:31.776Z,16.20
2019-03-20T06:13:57.622Z,15.47
2019-03-20T06:16:23.549Z,18.13
2019-03-20T06:18:49.374Z,17.40
2019-03-20T06:21:15.523Z,15.93
2019-03-20T06:23:41.401Z,19.13
2019-03-20T06:26:07.266Z,19.23
2019-03-20T06:28:33.108Z,24.13
2019-03-20T06:30:59.084Z,18.00
2019-03-20T06:33:24.880Z,16.97
2019-03-20T06:35:50.883Z,17.03
2019-03-20T06:38:16.843Z,16.10
2019-03-20T06:40:42.821Z,17.13
2019-03-20T06:43:08.644Z,22.73
2019-03-20T06:45:34.494Z,19.07
2019-03-20T06:48:01.016Z,25.33
2019-03-20T06:50:26.859Z,17.80
2019-03-20T06:52:52.973Z,17.03
2019-03-20T06:55:19.019Z,18.57
2019-03-20T06:57:45.046Z,16.70
2019-03-20T07:00:33.243Z,17.93
2019-03-20T07:03:18.636Z,19.63
2019-03-20T07:06:03.293Z,19.27
2019-03-20T07:08:39.143Z,17.23
2019-03-20T07:11:04.896Z,17.33
2019-03-20T07:13:30.716Z,18.67
2019-03-20T07:15:56.748Z,18.07
2019-03-20T07:18:22.549Z,17.37
2019-03-20T07:20:48.404Z,15.93
2019-03-20T07:23:14.352Z,19.43
2019-03-20T07:25:40.166Z,20.20
2019-03-20T07:28:06.007Z,13.70
2019-03-20T07:30:31.857Z,20.07
2019-03-20T07:32:57.691Z,15.43
2019-03-20T07:35:23.698Z,15.00
2019-03-20T07:37:55.969Z,18.37
2019-03-20T07:40:17.523Z,15.57
2019-03-20T07:42:43.446Z,16.70
2019-03-20T07:45:09.392Z,16.77
2019-03-20T07:47:35.245Z,16.70
2019-03-20T07:50:01.545Z,14.80
2019-03-20T07:52:27.451Z,16.83
2019-03-20T07:54:54.791Z,15.00
2019-03-20T07:57:20.896Z,14.80
2019-03-20T07:59:46.754Z,14.17
2019-03-20T08:02:12.590Z,21.23
2019-03-20T08:04:38.640Z,15.30
2019-03-20T08:07:04.585Z,16.93
2019-03-20T08:09:30.702Z,16.83
2019-03-20T08:11:56.662Z,13.50
2019-03-20T08:14:22.501Z,15.53
2019-03-20T08:16:48.494Z,14.47
2019-03-20T08:19:14.317Z,16.87
2019-03-20T08:21:41.560Z,14.67
2019-03-20T08:24:07.456Z,15.13
2019-03-20T08:26:33.380Z,16.50
2019-03-20T08:28:59.296Z,19.27
2019-03-20T08:31:25.214Z,16.97
2019-03-20T08:33:51.071Z,17.17
2019-03-20T08:36:17.159Z,17.17
2019-03-20T08:38:42.992Z,15.70
2019-03-20T08:41:09.028Z,14.63
2019-03-20T08:43:34.912Z,13.20
2019-03-20T08:46:00.826Z,13.70
2019-03-20T08:48:26.968Z,14.30
2019-03-20T08:50:52.914Z,13.70
2019-03-20T08:53:18.826Z,13.30
2019-03-20T08:55:44.837Z,15.37
2019-03-20T08:58:10.792Z,13.87
2019-03-20T09:00:36.631Z,14.50
2019-03-20T09:03:02.741Z,18.47
2019-03-20T09:05:28.742Z,15.47
2019-03-20T09:07:54.525Z,15.83
2019-03-20T09:10:21.533Z,15.17
2019-03-20T09:12:47.568Z,12.77
2019-03-20T09:15:14.804Z,13.37
2019-03-20T09:17:40.780Z,13.73
2019-03-20T09:20:10.321Z,13.53
2019-03-20T09:22:36.364Z,17.17
2019-03-20T09:25:05.272Z,14.63
2019-03-20T09:27:31.099Z,16.23
2019-03-20T09:29:57.042Z,12.30
2019-03-20T09:32:22.988Z,13.53
2019-03-20T09:34:48.829Z,13.50
2019-03-20T09:37:14.672Z,15.23
2019-03-20T09:39:40.643Z,13.33
2019-03-20T09:42:06.574Z,12.07
2019-03-20T09:44:32.536Z,11.87
2019-03-20T09:46:58.428Z,18.43
2019-03-20T09:49:24.291Z,14.37
2019-03-20T09:51:50.299Z,13.33
2019-03-20T09:54:16.426Z,12.80
2019-03-20T09:56:42.279Z,13.17
2019-03-20T09:59:08.246Z,14.03
2019-03-20T10:01:34.079Z,13.63
2019-03-20T10:04:00.037Z,14.53
2019-03-20T10:06:26.015Z,14.27
2019-03-20T10:08:54.296Z,15.30
2019-03-20T10:11:19.795Z,16.43
2019-03-20T10:13:45.684Z,12.13
2019-03-20T10:16:11.642Z,13.60
2019-03-20T10:18:37.586Z,15.83
2019-03-20T10:21:03.576Z,15.83
2019-03-20T10:23:29.409Z,13.27
2019-03-20T10:25:55.285Z,13.20
2019-03-20T10:28:21.129Z,12.87
2019-03-20T10:30:47.184Z,13.70
2019-03-20T10:33:13.139Z,14.73
2019-03-20T10:35:49.692Z,14.87
2019-03-20T10:38:07.012Z,15.43
2019-03-20T10:40:33.088Z,13.67
2019-03-20T10:42:59.101Z,12.77
2019-03-20T10:45:25.256Z,16.13
2019-03-20T10:47:53.062Z,12.80
2019-03-20T10:50:21.762Z,16.47
2019-03-20T10:52:47.705Z,13.47
2019-03-20T10:55:13.783Z,15.10
2019-03-20T10:57:39.970Z,12.60
2019-03-20T11:00:12.995Z,14.33
2019-03-20T11:02:38.858Z,11.87
2019-03-20T11:05:06.194Z,14.30
2019-03-20T11:07:31.990Z,13.77
2019-03-20T11:09:57.836Z,13.70
2019-03-20T11:12:23.800Z,15.47
2019-03-20T11:14:49.856Z,16.20
2019-03-20T11:17:15.891Z,11.83
2019-03-20T11:19:41.714Z,16.70
2019-03-20T11:22:18.212Z,14.90
2019-03-20T11:24:35.558Z,14.10
2019-03-20T11:27:01.496Z,13.10
2019-03-20T11:29:28.962Z,14.83
2019-03-20T11:31:54.973Z,12.40
2019-03-20T11:34:20.828Z,14.13
2019-03-20T11:36:46.658Z,17.17
2019-03-20T11:39:12.560Z,12.50
2019-03-20T11:41:38.511Z,12.20
2019-03-20T11:44:04.672Z,14.90
2019-03-20T11:46:30.789Z,12.37
2019-03-20T11:48:56.618Z,13.30
2019-03-20T11:51:22.526Z,12.67
2019-03-20T11:53:48.526Z,15.00
2019-03-20T11:56:14.368Z,14.37
2019-03-20T11:58:40.479Z,16.90
2019-03-20T12:01:06.404Z,13.43
2019-03-20T12:03:32.256Z,14.83
2019-03-20T12:05:58.321Z,12.73
2019-03-20T12:08:24.267Z,13.33
2019-03-20T12:10:50.113Z,12.80
2019-03-20T12:13:16.020Z,13.20
2019-03-20T12:15:41.854Z,14.37
2019-03-20T12:18:07.801Z,12.70
2019-03-20T12:20:33.759Z,17.23
2019-03-20T12:22:59.731Z,14.67
2019-03-20T12:25:34.733Z,15.33
2019-03-20T12:28:00.663Z,16.50
2019-03-20T12:30:31.993Z,16.00
2019-03-20T12:32:58.261Z,15.63
2019-03-20T12:35:26.555Z,14.07
2019-03-20T12:37:52.582Z,14.67
2019-03-20T12:40:21.429Z,16.53
2019-03-20T12:42:47.656Z,14.33
2019-03-20T12:45:16.613Z,12.57
2019-03-20T12:47:42.587Z,11.30
2019-03-20T12:50:10.871Z,19.70
2019-03-20T12:52:36.683Z,16.67
2019-03-20T12:55:05.577Z,16.60
2019-03-20T12:57:31.477Z,15.00
2019-03-20T12:59:57.643Z,14.60
2019-03-20T13:02:23.654Z,15.63
2019-03-20T13:04:49.597Z,16.17
2019-03-20T13:07:19.437Z,15.50
2019-03-20T13:09:45.408Z,15.17
2019-03-20T13:12:11.474Z,16.10
2019-03-20T13:14:37.553Z,16.07
2019-03-20T13:17:03.871Z,13.40
2019-03-20T13:19:29.679Z,15.43
2019-03-20T13:21:55.766Z,15.67
2019-03-20T13:24:21.744Z,15.70
2019-03-20T13:26:47.796Z,15.17
2019-03-20T13:29:13.739Z,14.37
2019-03-20T13:31:39.832Z,12.50
2019-03-20T13:34:05.672Z,16.27
2019-03-20T13:36:31.888Z,12.10
2019-03-20T13:38:57.840Z,14.47
2019-03-20T13:41:23.902Z,12.07
2019-03-20T13:43:49.891Z,13.27
2019-03-20T13:46:15.807Z,16.70
2019-03-20T13:48:41.927Z,15.83
2019-03-20T13:51:08.621Z,14.03
2019-03-20T13:53:45.807Z,14.03
2019-03-20T13:56:12.674Z,13.77
2019-03-20T13:58:38.641Z,14.97
2019-03-20T14:01:04.876Z,13.68
2019-03-20T14:03:31.048Z,11.53
2019-03-20T14:05:56.991Z,14.47
2019-03-20T14:08:23.393Z,10.70
2019-03-20T14:10:50.597Z,11.18
2019-03-20T14:13:17.029Z,17.00
2019-03-20T14:15:43.292Z,11.50
2019-03-20T14:18:09.269Z,11.78
2019-03-20T14:20:35.280Z,16.35
2019-03-20T14:23:01.507Z,13.72
2019-03-20T14:25:27.612Z,11.25
2019-03-20T14:27:53.671Z,12.73
2019-03-20T14:30:29.606Z,11.65
2019-03-20T14:32:55.711Z,11.43
2019-03-20T14:35:21.896Z,14.55
2019-03-20T14:37:48.048Z,11.08
2019-03-20T14:40:16.313Z,13.68
2019-03-20T14:42:42.489Z,12.05
2019-03-20T14:45:11.002Z,12.60
2019-03-20T14:47:42.114Z,12.53
2019-03-20T14:50:17.660Z,12.47
2019-03-20T14:52:43.850Z,14.73
2019-03-20T14:55:11.656Z,12.60
2019-03-20T14:57:37.811Z,11.38
2019-03-20T15:00:16.588Z,10.63
2019-03-20T15:02:42.966Z,12.10
2019-03-20T15:05:09.024Z,14.38
2019-03-20T15:07:35.054Z,12.82
2019-03-20T15:10:01.375Z,11.48
2019-03-20T15:12:27.361Z,13.25
2019-03-20T15:14:53.222Z,13.72
2019-03-20T15:17:19.197Z,13.60
2019-03-20T15:19:45.353Z,13.18
2019-03-20T15:22:11.194Z,12.40
2019-03-20T15:24:37.052Z,14.28
2019-03-20T15:27:03.132Z,17.65
2019-03-20T15:29:29.116Z,24.27
2019-03-20T15:31:55.079Z,14.35
2019-03-20T15:34:21.168Z,13.25
2019-03-20T15:36:47.032Z,12.90
2019-03-20T15:39:13.111Z,13.58
2019-03-20T15:41:38.935Z,18.40
2019-03-20T15:44:04.895Z,20.50
2019-03-20T15:46:30.955Z,15.63
2019-03-20T15:48:56.928Z,15.32
2019-03-20T15:51:22.984Z,13.03
2019-03-20T15:53:48.954Z,13.45
2019-03-20T15:56:14.898Z,14.60
2019-03-20T15:58:42.401Z,14.45
2019-03-20T16:01:08.360Z,14.30
2019-03-20T16:03:41.108Z,17.77
2019-03-20T16:06:06.935Z,13.63
2019-03-20T16:08:32.876Z,16.67
2019-03-20T16:11:06.261Z,14.50
2019-03-20T16:13:26.755Z,19.97
2019-03-20T16:15:52.814Z,14.13
2019-03-20T16:18:18.715Z,17.40
2019-03-20T16:20:44.559Z,15.80
2019-03-20T16:23:10.628Z,21.60
2019-03-20T16:25:36.628Z,15.47
2019-03-20T16:28:02.785Z,16.03
2019-03-20T16:30:31.477Z,16.90
2019-03-20T16:32:57.579Z,17.50
2019-03-20T16:35:23.636Z,14.20
2019-03-20T16:37:49.493Z,15.57
2019-03-20T16:40:24.182Z,16.40
2019-03-20T16:42:50.168Z,15.40
2019-03-20T16:45:19.147Z,16.40
2019-03-20T16:47:45.295Z,16.53
2019-03-20T16:50:14.533Z,15.07
2019-03-20T16:52:40.341Z,18.10
2019-03-20T16:55:09.050Z,18.03
2019-03-20T16:57:35.237Z,18.37
2019-03-20T17:00:03.515Z,20.30
2019-03-20T17:02:29.725Z,19.80
2019-03-20T17:04:55.680Z,20.13
2019-03-20T17:07:21.618Z,19.33
2019-03-20T17:09:47.853Z,18.47
2019-03-20T17:12:13.911Z,19.70
2019-03-20T17:14:41.725Z,20.60
2019-03-20T17:17:07.903Z,16.67
2019-03-20T17:19:33.720Z,20.03
2019-03-20T17:21:59.709Z,20.07
2019-03-20T17:24:25.674Z,18.67
2019-03-20T17:26:51.642Z,15.70
2019-03-20T17:29:17.706Z,17.57
2019-03-20T17:31:43.680Z,18.30
2019-03-20T17:34:09.543Z,17.90
2019-03-20T17:36:35.491Z,22.00
2019-03-20T17:39:01.462Z,17.57
2019-03-20T17:41:36.294Z,18.47
2019-03-20T17:43:55.017Z,19.00
2019-03-20T17:46:21.009Z,21.40
2019-03-20T17:48:47.128Z,20.27
2019-03-20T17:51:13.083Z,15.50
2019-03-20T17:53:39.033Z,16.70
2019-03-20T17:56:05.110Z,18.20
2019-03-20T17:58:30.956Z,21.27
2019-03-20T18:00:57.119Z,16.40
2019-03-20T18:03:23.309Z,20.87
2019-03-20T18:05:49.418Z,22.77
2019-03-20T18:08:15.376Z,22.47
2019-03-20T18:10:41.742Z,25.70
2019-03-20T18:13:07.942Z,16.23
2019-03-20T18:15:34.404Z,20.40
2019-03-20T18:18:00.859Z,21.30
2019-03-20T18:20:26.806Z,20.87
2019-03-20T18:22:52.693Z,23.67
2019-03-20T18:25:18.791Z,17.53
2019-03-20T18:27:44.900Z,22.33
2019-03-20T18:30:17.574Z,22.80
2019-03-20T18:32:43.747Z,21.80
2019-03-20T18:35:09.841Z,20.90
2019-03-20T18:37:35.891Z,20.27
2019-03-20T18:40:03.563Z,18.30
2019-03-20T18:42:29.504Z,18.30
2019-03-20T18:44:55.478Z,21.43
2019-03-20T18:47:21.423Z,19.90
2019-03-20T18:49:47.529Z,20.23
2019-03-20T18:52:13.441Z,20.10
2019-03-20T18:54:39.496Z,21.17
2019-03-20T18:57:05.466Z,22.03
2019-03-20T18:59:31.415Z,20.80
2019-03-20T19:01:57.402Z,24.57
2019-03-20T19:04:23.294Z,17.50
2019-03-20T19:06:49.298Z,19.93
2019-03-20T19:09:15.160Z,21.00
2019-03-20T19:11:41.373Z,23.37
2019-03-20T19:14:07.164Z,22.37
2019-03-20T19:16:33.266Z,21.77
2019-03-20T19:18:59.293Z,23.53
2019-03-20T19:21:25.179Z,20.33
2019-03-20T19:23:51.137Z,19.97
2019-03-20T19:26:17.512Z,20.00
2019-03-20T19:28:43.449Z,25.03
2019-03-20T19:31:09.609Z,22.67
2019-03-20T19:33:35.583Z,16.17
2019-03-20T19:36:01.519Z,18.17
2019-03-20T19:38:34.791Z,19.53
2019-03-20T19:40:55.509Z,18.17
2019-03-20T19:43:22.754Z,18.80
2019-03-20T19:45:49.486Z,19.07
2019-03-20T19:48:15.334Z,27.67
2019-03-20T19:50:41.318Z,16.67
2019-03-20T19:53:07.240Z,18.60
2019-03-20T19:55:33.409Z,20.00
2019-03-20T19:57:59.155Z,24.97
2019-03-20T20:00:26.784Z,24.30
2019-03-20T20:02:53.043Z,19.23
2019-03-20T20:05:19.107Z,19.60
2019-03-20T20:07:44.946Z,18.53
2019-03-20T20:10:18.023Z,18.80
2019-03-20T20:12:44.235Z,17.90
2019-03-20T20:15:27.256Z,20.50
2019-03-20T20:17:53.453Z,18.57
2019-03-20T20:20:20.702Z,25.37
2019-03-20T20:22:46.821Z,21.27
2019-03-20T20:25:12.695Z,18.97
2019-03-20T20:27:38.647Z,20.07
2019-03-20T20:30:08.387Z,18.73
2019-03-20T20:32:34.549Z,19.07
2019-03-20T20:35:00.409Z,21.60
2019-03-20T20:37:26.861Z,19.83
2019-03-20T20:39:52.806Z,17.83
2019-03-20T20:42:18.839Z,20.53
2019-03-20T20:44:44.823Z,22.20
2019-03-20T20:47:10.795Z,24.70
2019-03-20T20:49:36.745Z,22.33
2019-03-20T20:52:02.804Z,20.77
2019-03-20T20:54:28.891Z,19.83
2019-03-20T20:56:54.876Z,23.30
2019-03-20T20:59:20.736Z,27.13
2019-03-20T21:01:46.805Z,23.43
2019-03-20T21:04:12.661Z,19.03
2019-03-20T21:06:38.608Z,20.83
2019-03-20T21:09:06.209Z,17.33
2019-03-20T21:11:32.030Z,18.37
2019-03-20T21:13:57.930Z,20.13
2019-03-20T21:16:23.795Z,19.67
2019-03-20T21:18:56.506Z,18.93
2019-03-20T21:21:22.352Z,19.13
2019-03-20T21:24:25.923Z,24.73
2019-03-20T21:27:05.502Z,26.77
2019-03-20T21:29:37.870Z,25.73
2019-03-20T21:32:16.862Z,29.33
2019-03-20T21:35:12.332Z,26.73
2019-03-20T21:38:03.515Z,26.07
2019-03-20T21:40:35.135Z,31.57
2019-03-20T21:43:36.718Z,27.47
2019-03-20T21:46:06.363Z,26.03
2019-03-20T21:48:32.294Z,28.67
2019-03-20T21:51:14.888Z,24.93
2019-03-20T21:53:47.458Z,25.87
2019-03-20T21:56:26.220Z,27.67
2019-03-20T21:59:18.832Z,25.90
2019-03-20T22:02:11.759Z,30.10
2019-03-20T22:04:37.597Z,26.93
2019-03-20T22:07:07.867Z,28.87
2019-03-20T22:09:43.640Z,29.90
2019-03-20T22:12:19.250Z,31.63
2019-03-20T22:14:48.955Z,30.53
2019-03-20T22:17:24.818Z,29.50
2019-03-20T22:19:57.023Z,27.13
2019-03-20T22:22:38.788Z,29.43
2019-03-20T22:25:42.091Z,30.57
2019-03-20T22:28:26.965Z,28.63
2019-03-20T22:30:52.920Z,27.33
2019-03-20T22:33:55.989Z,31.70
2019-03-20T22:36:21.839Z,27.83
2019-03-20T22:39:08.168Z,26.60
2019-03-20T22:41:46.939Z,27.20
2019-03-20T22:44:12.919Z,29.53
2019-03-20T22:47:05.466Z,34.33
2019-03-20T22:49:53.125Z,24.93
2019-03-20T22:52:37.869Z,27.40
2019-03-20T22:55:22.186Z,31.87
2019-03-20T22:58:08.586Z,25.63
2019-03-20T23:00:34.767Z,24.00
2019-03-20T23:03:12.971Z,25.37
2019-03-20T23:05:38.818Z,28.63
2019-03-20T23:08:10.870Z,24.20
2019-03-20T23:10:36.694Z,24.83
2019-03-20T23:13:04.419Z,25.13
2019-03-20T23:15:30.393Z,30.03
2019-03-20T23:17:56.498Z,32.93
2019-03-20T23:20:25.782Z,31.00
2019-03-20T23:22:51.635Z,23.47
2019-03-20T23:25:17.569Z,28.57
2019-03-20T23:27:43.608Z,27.00
2019-03-20T23:30:16.156Z,22.63
2019-03-20T23:32:41.986Z,25.73
2019-03-20T23:35:08.000Z,25.17
2019-03-20T23:37:33.830Z,24.87
2019-03-20T23:39:59.769Z,22.23
2019-03-20T23:42:25.823Z,23.80
2019-03-20T23:44:51.777Z,24.23
2019-03-20T23:47:21.396Z,24.57
2019-03-20T23:49:47.320Z,22.43
2019-03-20T23:52:13.146Z,26.70
2019-03-20T23:54:43.366Z,26.50
2019-03-20T23:57:09.215Z,26.07
2019-03-20T23:59:35.101Z,24.17
